Time;durP1;ratioP1;P1;durP2;ratioP2;P2;SDS_P1;SDS_P2;PMS_P1;PMS_P2;Temp;Humidity;BMP_temperature;BMP_pressure;BME280_temperature;BME280_humidity;BME280_pressure;Samples;Min_cycle;Max_cycle;Signal;HPM_P1;HPM_P2
2022/11/04 00:01:15;;;;;;;6.70;1.70;;;;;;;;;;4948949;28;20118;-86
2022/11/04 00:03:41;;;;;;;7.13;1.60;;;;;;;;;;4949775;28;20515;-86
2022/11/04 00:06:07;;;;;;;4.80;1.60;;;;;;;;;;4951288;28;20106;-86
2022/11/04 00:08:33;;;;;;;9.48;1.83;;;;;;;;;;4948739;28;20153;-84
2022/11/04 00:13:45;;;;;;;12.98;1.80;;;;;;;;;;4945878;28;20067;-87
2022/11/04 00:18:56;;;;;;;3.67;1.60;;;;;;;;;;4949642;28;20059;-85
2022/11/04 00:29:41;;;;;;;6.88;1.95;;;;;;;;;;4979500;28;20084;-85
2022/11/04 00:34:52;;;;;;;4.50;1.70;;;;;;;;;;4950054;28;20051;-85
2022/11/04 00:37:18;;;;;;;9.15;1.70;;;;;;;;;;4949678;28;20125;-85
2022/11/04 00:39:45;;;;;;;6.53;1.95;;;;;;;;;;4949197;28;20043;-85
2022/11/04 00:42:11;;;;;;;6.95;1.80;;;;;;;;;;4946886;28;20062;-85
2022/11/04 00:44:37;;;;;;;8.52;1.70;;;;;;;;;;4943038;28;20137;-85
2022/11/04 00:47:03;;;;;;;7.65;1.80;;;;;;;;;;4948662;28;20035;-86
2022/11/04 00:49:29;;;;;;;6.20;1.70;;;;;;;;;;4941381;28;20166;-86
2022/11/04 00:51:55;;;;;;;3.60;1.60;;;;;;;;;;4981969;28;20047;-85
2022/11/04 00:54:21;;;;;;;4.80;1.58;;;;;;;;;;4972662;28;20135;-85
2022/11/04 00:56:50;;;;;;;3.53;1.60;;;;;;;;;;4948021;28;20420;-86
2022/11/04 00:59:16;;;;;;;3.90;1.48;;;;;;;;;;4947203;28;20066;-84
2022/11/04 01:01:42;;;;;;;4.97;1.65;;;;;;;;;;4983674;28;20443;-85
2022/11/04 01:04:08;;;;;;;6.90;1.75;;;;;;;;;;4946848;28;20447;-87
2022/11/04 01:06:34;;;;;;;7.13;1.67;;;;;;;;;;4948997;28;20050;-86
2022/11/04 01:09:02;;;;;;;10.63;2.30;;;;;;;;;;4950354;28;20415;-86
2022/11/04 01:11:29;;;;;;;11.60;2.00;;;;;;;;;;4951435;28;20097;-86
2022/11/04 01:13:55;;;;;;;5.95;1.80;;;;;;;;;;4945847;28;20039;-85
2022/11/04 01:16:22;;;;;;;2.40;1.15;;;;;;;;;;4976639;28;20044;-86
2022/11/04 01:18:48;;;;;;;2.92;1.40;;;;;;;;;;4948523;28;20054;-86
2022/11/04 01:21:15;;;;;;;4.80;1.70;;;;;;;;;;4964252;28;20094;-86
2022/11/04 01:23:41;;;;;;;5.15;1.40;;;;;;;;;;4950272;28;20513;-86
2022/11/04 01:26:08;;;;;;;3.65;1.48;;;;;;;;;;4948064;28;20047;-86
2022/11/04 01:28:34;;;;;;;6.20;1.67;;;;;;;;;;4945001;28;20122;-86
2022/11/04 01:31:11;;;;;;;6.47;1.85;;;;;;;;;;4947489;28;20053;-85
2022/11/04 01:33:37;;;;;;;7.28;1.80;;;;;;;;;;4943176;28;20054;-85
2022/11/04 01:36:04;;;;;;;11.30;2.08;;;;;;;;;;4947148;28;20142;-85
2022/11/04 01:38:39;;;;;;;7.75;2.15;;;;;;;;;;4947134;28;20051;-86
2022/11/04 01:41:06;;;;;;;8.30;2.13;;;;;;;;;;4949060;28;20062;-86
2022/11/04 01:43:52;;;;;;;7.80;1.75;;;;;;;;;;4950361;28;20051;-86
2022/11/04 01:46:23;;;;;;;5.55;1.67;;;;;;;;;;4954140;28;20593;-86
2022/11/04 01:48:50;;;;;;;5.50;1.55;;;;;;;;;;4979045;28;20465;-85
2022/11/04 01:51:17;;;;;;;8.10;2.00;;;;;;;;;;4954387;28;20055;-85
2022/11/04 01:53:44;;;;;;;8.55;1.98;;;;;;;;;;4949388;28;20647;-87
2022/11/04 01:56:11;;;;;;;8.13;2.00;;;;;;;;;;4950752;28;20081;-87
2022/11/04 01:58:43;;;;;;;5.85;1.58;;;;;;;;;;4950846;28;20047;-86
2022/11/04 02:01:10;;;;;;;5.72;1.52;;;;;;;;;;4954291;29;20079;-87
2022/11/04 02:03:39;;;;;;;7.35;1.95;;;;;;;;;;4950716;28;20055;-87
2022/11/04 02:06:06;;;;;;;8.68;2.13;;;;;;;;;;4947972;28;20047;-86
2022/11/04 02:08:33;;;;;;;10.80;2.17;;;;;;;;;;4952304;28;20062;-86
2022/11/04 02:11:00;;;;;;;9.65;2.30;;;;;;;;;;4946382;28;20051;-87
2022/11/04 02:13:27;;;;;;;8.85;2.00;;;;;;;;;;4948157;28;20121;-86
2022/11/04 02:16:00;;;;;;;5.28;1.77;;;;;;;;;;4950814;28;20438;-86
2022/11/04 02:18:35;;;;;;;3.25;1.70;;;;;;;;;;4951343;28;21664;-86
2022/11/04 02:21:01;;;;;;;7.60;1.75;;;;;;;;;;4944753;28;20138;-85
2022/11/04 02:23:46;;;;;;;5.43;1.85;;;;;;;;;;4980066;28;20151;-86
2022/11/04 02:26:18;;;;;;;4.72;1.45;;;;;;;;;;4985310;28;20443;-85
2022/11/04 02:28:44;;;;;;;4.80;1.67;;;;;;;;;;4979094;28;20047;-86
2022/11/04 02:31:29;;;;;;;7.70;1.80;;;;;;;;;;4950751;28;20867;-86
2022/11/04 02:34:12;;;;;;;4.30;2.05;;;;;;;;;;4949226;28;20380;-87
2022/11/04 02:36:41;;;;;;;2.90;1.58;;;;;;;;;;4951889;28;20047;-86
2022/11/04 02:39:10;;;;;;;10.00;2.40;;;;;;;;;;4977432;28;20087;-86
2022/11/04 02:41:44;;;;;;;10.13;2.08;;;;;;;;;;4950424;28;20067;-86
2022/11/04 02:44:13;;;;;;;7.22;2.10;;;;;;;;;;4950344;28;20058;-86
2022/11/04 02:46:45;;;;;;;5.00;1.70;;;;;;;;;;4982661;28;20055;-87
2022/11/04 02:49:11;;;;;;;10.15;1.77;;;;;;;;;;4975647;28;20495;-87
2022/11/04 02:51:40;;;;;;;6.38;1.67;;;;;;;;;;4948981;28;20326;-86
2022/11/04 02:54:25;;;;;;;10.38;2.25;;;;;;;;;;4947776;28;20043;-87
2022/11/04 02:56:52;;;;;;;7.18;2.00;;;;;;;;;;4948841;28;20059;-86
2022/11/04 02:59:21;;;;;;;9.30;2.25;;;;;;;;;;4953100;28;20180;-87
2022/11/04 03:01:49;;;;;;;4.07;2.00;;;;;;;;;;4952245;28;20059;-85
2022/11/04 03:04:17;;;;;;;8.18;2.20;;;;;;;;;;4940996;28;20055;-86
2022/11/04 03:06:44;;;;;;;10.50;2.00;;;;;;;;;;4947569;28;20051;-85
2022/11/04 03:09:12;;;;;;;9.80;2.22;;;;;;;;;;4946605;28;20101;-86
2022/11/04 03:11:40;;;;;;;8.38;2.00;;;;;;;;;;4949807;28;20380;-86
2022/11/04 03:14:10;;;;;;;3.90;2.28;;;;;;;;;;4951382;28;20050;-86
2022/11/04 03:16:37;;;;;;;4.25;1.70;;;;;;;;;;4949154;28;20125;-86
2022/11/04 03:19:08;;;;;;;3.53;1.70;;;;;;;;;;4950599;28;20168;-86
2022/11/04 03:21:36;;;;;;;5.00;1.70;;;;;;;;;;4946705;28;20047;-86
2022/11/04 03:24:03;;;;;;;9.65;1.70;;;;;;;;;;4950982;28;20048;-85
2022/11/04 03:26:29;;;;;;;8.15;2.22;;;;;;;;;;4983736;28;20058;-87
2022/11/04 03:29:04;;;;;;;1.70;1.00;;;;;;;;;;4947548;28;20060;-86
2022/11/04 03:31:44;;;;;;;3.08;1.30;;;;;;;;;;4949699;28;20094;-86
2022/11/04 03:34:10;;;;;;;8.05;1.63;;;;;;;;;;4983954;28;20102;-86
2022/11/04 03:36:36;;;;;;;3.33;1.40;;;;;;;;;;4950662;28;20366;-85
2022/11/04 03:39:02;;;;;;;4.13;1.23;;;;;;;;;;4982151;28;20102;-86
2022/11/04 03:41:43;;;;;;;5.43;1.83;;;;;;;;;;4943797;28;20692;-86
2022/11/04 03:44:10;;;;;;;4.80;1.40;;;;;;;;;;4948536;29;20050;-86
2022/11/04 03:46:36;;;;;;;2.83;1.33;;;;;;;;;;4950352;28;20062;-86
2022/11/04 03:49:02;;;;;;;3.40;1.52;;;;;;;;;;4946179;28;20055;-86
2022/11/04 03:51:28;;;;;;;6.07;1.40;;;;;;;;;;4949978;28;20050;-85
2022/11/04 03:53:55;;;;;;;4.32;1.40;;;;;;;;;;4947733;29;20118;-87
2022/11/04 03:56:24;;;;;;;5.25;1.50;;;;;;;;;;4979916;28;20526;-86
2022/11/04 03:58:50;;;;;;;7.32;1.90;;;;;;;;;;4948309;28;20048;-86
2022/11/04 04:01:34;;;;;;;6.30;1.80;;;;;;;;;;4978312;28;20047;-86
2022/11/04 04:04:12;;;;;;;6.30;1.80;;;;;;;;;;4950727;28;20423;-87
2022/11/04 04:06:39;;;;;;;7.00;2.05;;;;;;;;;;4980131;28;20067;-85
2022/11/04 04:09:23;;;;;;;5.78;1.70;;;;;;;;;;4950262;28;20130;-85
2022/11/04 04:11:53;;;;;;;5.07;1.50;;;;;;;;;;4945415;28;20082;-87
2022/11/04 04:17:35;;;;;;;4.05;1.60;;;;;;;;;;4923266;28;20054;-86
2022/11/04 04:20:06;;;;;;;4.35;1.40;;;;;;;;;;4951741;28;20098;-85
2022/11/04 04:22:39;;;;;;;4.63;1.67;;;;;;;;;;4946887;28;20150;-86
2022/11/04 04:27:53;;;;;;;4.80;1.77;;;;;;;;;;4948654;28;20403;-86
2022/11/04 04:30:19;;;;;;;1.45;1.20;;;;;;;;;;4947819;28;20418;-85
2022/11/04 04:32:49;;;;;;;3.70;1.30;;;;;;;;;;4950583;28;20449;-85
2022/11/04 04:46:30;;;;;;;5.05;1.63;;;;;;;;;;4947301;28;20158;-86
2022/11/04 04:49:02;;;;;;;6.38;1.60;;;;;;;;;;4948675;28;20051;-85
2022/11/04 04:51:28;;;;;;;4.88;1.77;;;;;;;;;;4943670;28;20043;-85
2022/11/04 04:53:54;;;;;;;5.25;1.60;;;;;;;;;;4950928;28;20050;-85
2022/11/04 04:56:20;;;;;;;4.70;1.30;;;;;;;;;;4938919;28;20047;-85
2022/11/04 04:58:46;;;;;;;4.32;1.30;;;;;;;;;;4950740;28;20043;-86
2022/11/04 05:01:12;;;;;;;2.20;1.48;;;;;;;;;;4948727;28;20039;-85
2022/11/04 05:03:38;;;;;;;4.93;1.98;;;;;;;;;;4948398;28;20066;-85
2022/11/04 05:06:05;;;;;;;4.03;1.48;;;;;;;;;;4947534;28;20039;-85
2022/11/04 05:08:31;;;;;;;5.47;1.60;;;;;;;;;;4951239;28;20056;-84
2022/11/04 05:10:58;;;;;;;4.07;1.80;;;;;;;;;;4949946;28;20047;-84
2022/11/04 05:13:28;;;;;;;2.90;1.50;;;;;;;;;;4946437;28;20043;-84
2022/11/04 05:15:56;;;;;;;5.20;1.83;;;;;;;;;;4979147;28;20039;-85
2022/11/04 05:18:22;;;;;;;6.07;1.40;;;;;;;;;;4949535;28;20055;-85
2022/11/04 05:20:48;;;;;;;5.35;1.80;;;;;;;;;;4986586;28;20522;-84
2022/11/04 05:23:14;;;;;;;4.60;1.52;;;;;;;;;;4982506;28;20098;-83
2022/11/04 05:25:41;;;;;;;5.97;1.77;;;;;;;;;;4953611;28;20051;-85
2022/11/04 05:28:07;;;;;;;2.05;1.48;;;;;;;;;;4955785;28;20039;-85
2022/11/04 05:30:34;;;;;;;6.57;1.30;;;;;;;;;;4950550;28;20075;-86
2022/11/04 05:32:59;;;;;;;6.53;1.55;;;;;;;;;;4948873;28;20039;-85
2022/11/04 05:35:26;;;;;;;3.38;1.30;;;;;;;;;;4953891;28;20636;-84
2022/11/04 05:37:52;;;;;;;1.30;1.20;;;;;;;;;;4984923;28;20050;-85
2022/11/04 05:40:18;;;;;;;1.17;1.10;;;;;;;;;;4952219;28;20092;-85
2022/11/04 05:42:44;;;;;;;9.50;1.45;;;;;;;;;;4953558;28;20042;-84
2022/11/04 05:45:10;;;;;;;3.22;1.38;;;;;;;;;;4947417;28;20039;-84
2022/11/04 05:47:36;;;;;;;3.60;1.23;;;;;;;;;;4950368;28;20047;-85
2022/11/04 05:50:02;;;;;;;2.50;1.20;;;;;;;;;;4950394;28;20106;-84
2022/11/04 05:52:28;;;;;;;2.50;1.52;;;;;;;;;;4984292;28;20646;-84
2022/11/04 05:54:54;;;;;;;3.75;1.50;;;;;;;;;;4952748;28;20097;-84
2022/11/04 05:57:20;;;;;;;2.90;1.50;;;;;;;;;;4954037;28;20035;-84
2022/11/04 05:59:46;;;;;;;3.53;1.63;;;;;;;;;;4949820;28;20046;-84
2022/11/04 06:02:12;;;;;;;6.00;1.77;;;;;;;;;;4949994;28;20090;-84
2022/11/04 06:04:38;;;;;;;3.28;1.60;;;;;;;;;;4948582;28;20074;-84
2022/11/04 06:07:04;;;;;;;5.47;1.80;;;;;;;;;;4951904;28;20086;-84
2022/11/04 06:09:39;;;;;;;5.05;1.67;;;;;;;;;;4951572;28;20695;-84
2022/11/04 06:12:09;;;;;;;4.85;1.73;;;;;;;;;;4950158;28;20531;-83
2022/11/04 06:14:35;;;;;;;1.95;1.50;;;;;;;;;;4946871;28;20146;-84
2022/11/04 06:17:02;;;;;;;4.72;1.80;;;;;;;;;;4952590;28;20082;-84
2022/11/04 06:19:31;;;;;;;4.30;1.50;;;;;;;;;;4951151;28;20051;-85
2022/11/04 06:21:57;;;;;;;2.67;1.40;;;;;;;;;;4948696;28;20053;-84
2022/11/04 06:24:23;;;;;;;4.40;1.40;;;;;;;;;;4951747;29;20051;-84
2022/11/04 06:26:49;;;;;;;2.28;1.33;;;;;;;;;;4949130;28;20146;-84
2022/11/04 06:29:15;;;;;;;3.38;1.30;;;;;;;;;;4947419;28;20411;-84
2022/11/04 06:31:41;;;;;;;5.03;1.52;;;;;;;;;;4950149;28;20047;-84
2022/11/04 06:34:07;;;;;;;4.00;1.50;;;;;;;;;;4939870;28;20478;-85
2022/11/04 06:36:33;;;;;;;3.55;1.60;;;;;;;;;;4950025;28;20043;-84
2022/11/04 06:38:59;;;;;;;3.65;1.55;;;;;;;;;;4949293;28;20039;-83
2022/11/04 06:41:25;;;;;;;6.40;1.77;;;;;;;;;;4975657;28;20514;-82
2022/11/04 06:43:51;;;;;;;8.48;1.70;;;;;;;;;;4953440;28;20048;-82
2022/11/04 06:46:25;;;;;;;7.85;1.90;;;;;;;;;;4982538;28;20298;-83
2022/11/04 06:48:55;;;;;;;4.63;1.75;;;;;;;;;;4951008;28;20040;-82
2022/11/04 06:51:21;;;;;;;5.40;1.50;;;;;;;;;;4976760;28;20090;-83
2022/11/04 06:53:47;;;;;;;5.22;1.92;;;;;;;;;;4981701;28;20563;-82
2022/11/04 06:56:14;;;;;;;4.95;1.58;;;;;;;;;;4979050;28;20052;-85
2022/11/04 06:58:40;;;;;;;5.05;1.60;;;;;;;;;;4948392;28;20031;-85
2022/11/04 07:01:06;;;;;;;2.90;1.50;;;;;;;;;;4978344;28;20515;-83
2022/11/04 07:03:32;;;;;;;3.17;1.60;;;;;;;;;;4949704;28;20047;-84
2022/11/04 07:05:58;;;;;;;3.58;1.60;;;;;;;;;;4953182;28;20503;-84
2022/11/04 07:08:24;;;;;;;3.47;1.55;;;;;;;;;;4953038;28;20055;-84
2022/11/04 07:10:53;;;;;;;4.82;1.60;;;;;;;;;;4947772;28;20138;-84
2022/11/04 07:13:19;;;;;;;8.27;2.25;;;;;;;;;;4951386;28;20050;-85
2022/11/04 07:15:45;;;;;;;4.70;1.73;;;;;;;;;;4956206;28;20047;-83
2022/11/04 07:18:14;;;;;;;5.25;1.63;;;;;;;;;;4944728;28;20040;-84
2022/11/04 07:20:40;;;;;;;3.47;1.50;;;;;;;;;;4949497;28;20047;-84
2022/11/04 07:23:06;;;;;;;4.40;1.67;;;;;;;;;;4952126;29;20050;-84
2022/11/04 07:25:32;;;;;;;4.97;1.60;;;;;;;;;;4946471;28;20055;-85
2022/11/04 07:27:59;;;;;;;4.13;1.70;;;;;;;;;;4946801;28;20082;-85
2022/11/04 07:30:24;;;;;;;3.88;1.55;;;;;;;;;;4950848;28;20508;-85
2022/11/04 07:32:50;;;;;;;2.60;1.73;;;;;;;;;;4950129;29;20047;-84
2022/11/04 07:35:17;;;;;;;2.97;1.83;;;;;;;;;;4946891;28;20043;-84
2022/11/04 07:37:43;;;;;;;5.57;2.00;;;;;;;;;;4950062;28;20245;-84
2022/11/04 07:40:09;;;;;;;6.97;2.15;;;;;;;;;;4951305;28;20125;-85
2022/11/04 07:42:35;;;;;;;4.32;1.80;;;;;;;;;;4952068;28;20558;-84
2022/11/04 07:45:01;;;;;;;4.78;1.77;;;;;;;;;;4951845;28;20078;-85
2022/11/04 07:47:29;;;;;;;3.30;1.60;;;;;;;;;;4949973;28;20340;-86
2022/11/04 07:49:55;;;;;;;4.68;2.05;;;;;;;;;;4952834;29;20043;-84
2022/11/04 07:52:21;;;;;;;7.13;1.80;;;;;;;;;;4944119;28;20106;-85
2022/11/04 07:54:47;;;;;;;3.80;1.60;;;;;;;;;;4952661;29;20495;-84
2022/11/04 07:57:13;;;;;;;7.47;2.50;;;;;;;;;;4945142;28;20045;-85
2022/11/04 07:59:39;;;;;;;4.90;1.80;;;;;;;;;;4952742;28;20043;-84
2022/11/04 08:02:06;;;;;;;4.28;1.70;;;;;;;;;;4944949;28;20039;-84
2022/11/04 08:04:32;;;;;;;4.70;1.63;;;;;;;;;;4953950;29;20055;-84
2022/11/04 08:06:58;;;;;;;4.57;1.90;;;;;;;;;;4951530;28;20047;-85
2022/11/04 08:09:24;;;;;;;3.65;1.90;;;;;;;;;;4952744;28;20543;-85
2022/11/04 08:11:50;;;;;;;3.13;1.85;;;;;;;;;;4950588;28;20505;-84
2022/11/04 08:14:16;;;;;;;4.53;2.05;;;;;;;;;;4949258;28;20571;-84
2022/11/04 08:16:42;;;;;;;5.65;1.80;;;;;;;;;;4952411;28;20163;-84
2022/11/04 08:19:08;;;;;;;4.38;1.85;;;;;;;;;;4975867;28;20052;-84
2022/11/04 08:21:34;;;;;;;7.18;2.35;;;;;;;;;;4952222;28;20083;-84
2022/11/04 08:24:04;;;;;;;6.20;2.08;;;;;;;;;;4947362;28;20098;-84
2022/11/04 08:26:30;;;;;;;5.18;2.15;;;;;;;;;;4981119;28;20059;-84
2022/11/04 08:28:56;;;;;;;5.15;2.17;;;;;;;;;;4979652;28;20050;-84
2022/11/04 08:31:24;;;;;;;5.28;2.20;;;;;;;;;;4982668;28;20447;-84
2022/11/04 08:33:51;;;;;;;4.07;2.00;;;;;;;;;;4948035;28;20098;-83
2022/11/04 08:36:19;;;;;;;4.90;2.17;;;;;;;;;;4949274;28;20047;-83
2022/11/04 08:38:45;;;;;;;3.45;1.90;;;;;;;;;;4950383;28;20130;-83
2022/11/04 08:41:12;;;;;;;4.78;2.00;;;;;;;;;;4944703;28;20039;-84
2022/11/04 08:43:38;;;;;;;6.60;2.03;;;;;;;;;;4948918;28;20043;-84
2022/11/04 08:46:05;;;;;;;7.57;2.47;;;;;;;;;;4948488;28;20059;-84
2022/11/04 08:48:38;;;;;;;6.82;2.10;;;;;;;;;;4945802;28;20044;-84
2022/11/04 08:51:05;;;;;;;4.82;1.85;;;;;;;;;;4947397;28;20125;-84
2022/11/04 08:53:31;;;;;;;9.90;2.17;;;;;;;;;;4946357;28;20086;-83
2022/11/04 08:55:57;;;;;;;6.45;2.25;;;;;;;;;;4948210;28;20047;-84
2022/11/04 08:58:23;;;;;;;6.53;2.03;;;;;;;;;;4945783;28;20050;-85
2022/11/04 09:00:50;;;;;;;5.50;1.92;;;;;;;;;;4942565;28;20075;-84
2022/11/04 09:03:16;;;;;;;4.20;1.90;;;;;;;;;;4944856;28;20068;-84
2022/11/04 09:05:46;;;;;;;5.55;1.70;;;;;;;;;;4943914;29;20054;-84
2022/11/04 09:08:13;;;;;;;8.20;2.15;;;;;;;;;;4944461;29;20046;-84
2022/11/04 09:10:43;;;;;;;6.00;2.38;;;;;;;;;;4951182;28;20407;-84
2022/11/04 09:13:10;;;;;;;5.18;1.95;;;;;;;;;;4946680;28;20050;-85
2022/11/04 09:15:36;;;;;;;4.32;1.88;;;;;;;;;;4943820;28;20098;-84
2022/11/04 09:18:03;;;;;;;5.18;2.05;;;;;;;;;;4946287;28;20035;-84
2022/11/04 09:20:30;;;;;;;6.97;2.20;;;;;;;;;;4945662;28;20048;-85
2022/11/04 09:22:56;;;;;;;5.57;2.67;;;;;;;;;;4948558;29;20447;-84
2022/11/04 09:25:22;;;;;;;4.15;1.90;;;;;;;;;;4948390;28;20134;-84
2022/11/04 09:27:48;;;;;;;5.07;1.80;;;;;;;;;;4950400;28;20150;-84
2022/11/04 09:30:14;;;;;;;8.63;2.25;;;;;;;;;;4949156;29;20522;-86
2022/11/04 09:32:40;;;;;;;3.10;1.90;;;;;;;;;;4950691;28;20491;-84
2022/11/04 09:35:07;;;;;;;6.78;2.28;;;;;;;;;;4947902;28;20134;-85
2022/11/04 09:37:33;;;;;;;9.55;3.35;;;;;;;;;;4949392;28;20047;-84
2022/11/04 09:39:59;;;;;;;6.97;2.50;;;;;;;;;;4948500;28;20054;-85
2022/11/04 09:42:28;;;;;;;8.23;2.63;;;;;;;;;;4950389;28;20047;-84
2022/11/04 09:45:00;;;;;;;7.50;2.30;;;;;;;;;;4946476;28;20051;-84
2022/11/04 09:47:26;;;;;;;6.93;2.03;;;;;;;;;;4951243;29;20439;-85
2022/11/04 09:49:54;;;;;;;5.57;2.47;;;;;;;;;;4949027;28;20101;-86
2022/11/04 09:52:24;;;;;;;7.88;2.38;;;;;;;;;;4947019;28;20183;-85
2022/11/04 09:55:04;;;;;;;6.20;2.45;;;;;;;;;;4949722;29;20047;-86
2022/11/04 09:57:31;;;;;;;6.28;2.05;;;;;;;;;;4950492;28;20050;-86
2022/11/04 09:59:58;;;;;;;5.20;1.90;;;;;;;;;;4949104;28;20059;-87
2022/11/04 10:02:33;;;;;;;8.35;2.20;;;;;;;;;;4943526;28;20055;-86
2022/11/04 10:05:01;;;;;;;6.88;2.20;;;;;;;;;;4952374;28;20055;-87
2022/11/04 10:07:30;;;;;;;5.32;2.15;;;;;;;;;;4952900;29;20047;-86
2022/11/04 10:09:56;;;;;;;6.13;2.65;;;;;;;;;;4948971;29;20062;-86
2022/11/04 10:12:37;;;;;;;8.57;2.20;;;;;;;;;;4949282;29;20043;-86
2022/11/04 10:15:09;;;;;;;7.55;2.30;;;;;;;;;;4986719;28;20051;-86
2022/11/04 10:17:35;;;;;;;6.47;2.53;;;;;;;;;;4953937;28;20066;-86
2022/11/04 10:20:30;;;;;;;8.02;2.40;;;;;;;;;;4978995;28;20032;-86
2022/11/04 10:22:59;;;;;;;4.32;2.10;;;;;;;;;;4946360;28;20079;-86
2022/11/04 10:25:30;;;;;;;4.07;2.00;;;;;;;;;;4953016;28;20054;-86
2022/11/04 10:27:57;;;;;;;10.10;2.60;;;;;;;;;;4950741;29;20373;-86
2022/11/04 10:30:24;;;;;;;6.10;2.20;;;;;;;;;;4950444;29;20126;-86
2022/11/04 10:33:08;;;;;;;6.78;2.40;;;;;;;;;;4985974;28;20051;-86
2022/11/04 10:35:37;;;;;;;6.90;2.50;;;;;;;;;;4945395;29;20110;-85
2022/11/04 10:38:12;;;;;;;6.40;2.20;;;;;;;;;;4951867;29;20055;-87
2022/11/04 10:40:39;;;;;;;9.55;2.83;;;;;;;;;;4974674;28;20126;-87
2022/11/04 10:43:10;;;;;;;6.05;2.20;;;;;;;;;;4983866;28;20484;-87
2022/11/04 10:45:39;;;;;;;7.47;2.28;;;;;;;;;;4949783;29;20054;-86
2022/11/04 10:48:14;;;;;;;6.70;2.10;;;;;;;;;;4952713;28;20035;-86
2022/11/04 10:51:00;;;;;;;8.30;2.67;;;;;;;;;;4979456;28;20048;-86
2022/11/04 10:53:28;;;;;;;7.65;2.40;;;;;;;;;;4949895;29;20062;-86
2022/11/04 10:55:59;;;;;;;9.15;2.70;;;;;;;;;;4950373;28;20055;-85
2022/11/04 10:58:26;;;;;;;7.28;2.38;;;;;;;;;;4947193;28;20084;-86
2022/11/04 11:00:53;;;;;;;9.75;2.50;;;;;;;;;;4949548;28;20071;-86
2022/11/04 11:03:24;;;;;;;7.80;2.67;;;;;;;;;;4950442;28;20358;-86
2022/11/04 11:05:51;;;;;;;5.85;2.40;;;;;;;;;;4950839;29;20069;-86
2022/11/04 11:08:29;;;;;;;8.88;2.65;;;;;;;;;;4953814;28;20561;-86
2022/11/04 11:10:55;;;;;;;13.23;2.63;;;;;;;;;;4948065;29;20047;-86
2022/11/04 11:13:34;;;;;;;6.53;2.60;;;;;;;;;;4949751;28;20134;-86
2022/11/04 11:16:07;;;;;;;6.60;2.55;;;;;;;;;;4948773;28;20134;-86
2022/11/04 11:18:36;;;;;;;11.02;2.40;;;;;;;;;;4949327;28;20345;-84
2022/11/04 11:21:19;;;;;;;5.25;2.10;;;;;;;;;;4950156;28;20051;-86
2022/11/04 11:23:47;;;;;;;7.75;2.30;;;;;;;;;;4953270;29;20043;-86
2022/11/04 11:26:21;;;;;;;7.75;2.42;;;;;;;;;;4950131;29;20086;-86
2022/11/04 11:28:50;;;;;;;8.27;2.38;;;;;;;;;;4951987;29;20047;-86
2022/11/04 11:31:22;;;;;;;7.47;2.45;;;;;;;;;;4952197;28;20055;-86
2022/11/04 11:34:11;;;;;;;7.97;2.30;;;;;;;;;;4953532;29;20062;-86
2022/11/04 11:36:38;;;;;;;6.30;2.33;;;;;;;;;;4945765;29;20447;-85
2022/11/04 11:39:20;;;;;;;7.38;2.17;;;;;;;;;;4952234;28;20133;-87
2022/11/04 11:42:05;;;;;;;7.63;2.60;;;;;;;;;;4950253;28;20039;-86
2022/11/04 11:44:43;;;;;;;6.30;2.45;;;;;;;;;;4983888;28;20078;-87
2022/11/04 11:47:18;;;;;;;5.13;2.05;;;;;;;;;;4952971;28;20483;-86
2022/11/04 11:49:44;;;;;;;4.82;2.00;;;;;;;;;;4953240;28;20438;-87
2022/11/04 11:52:23;;;;;;;6.15;2.42;;;;;;;;;;4944959;28;20043;-86
2022/11/04 11:54:51;;;;;;;6.95;2.33;;;;;;;;;;4950111;29;20051;-86
2022/11/04 11:57:26;;;;;;;6.90;2.28;;;;;;;;;;4945548;29;20047;-86
2022/11/04 12:00:08;;;;;;;6.93;2.03;;;;;;;;;;4954191;29;20059;-87
2022/11/04 12:02:53;;;;;;;3.97;2.00;;;;;;;;;;4948688;29;20071;-87
2022/11/04 12:05:21;;;;;;;4.15;2.00;;;;;;;;;;4949913;29;20050;-87
2022/11/04 12:08:00;;;;;;;4.43;2.13;;;;;;;;;;4950048;28;20064;-86
2022/11/04 12:10:42;;;;;;;6.47;1.85;;;;;;;;;;4953550;28;20043;-88
2022/11/04 12:13:18;;;;;;;5.60;2.30;;;;;;;;;;4981103;28;20055;-86
2022/11/04 12:15:53;;;;;;;6.07;2.28;;;;;;;;;;4951145;28;20051;-86
2022/11/04 12:18:38;;;;;;;7.68;2.05;;;;;;;;;;4981973;28;20782;-87
2022/11/04 12:21:04;;;;;;;6.63;2.30;;;;;;;;;;4953325;28;20043;-87
2022/11/04 12:23:43;;;;;;;5.57;2.40;;;;;;;;;;4949961;28;20054;-87
2022/11/04 12:26:23;;;;;;;5.25;2.33;;;;;;;;;;4948691;29;20058;-86
2022/11/04 12:28:58;;;;;;;4.93;1.92;;;;;;;;;;4952172;28;20047;-86
2022/11/04 12:31:36;;;;;;;4.72;2.30;;;;;;;;;;4949235;28;20047;-86
2022/11/04 12:34:11;;;;;;;4.25;2.10;;;;;;;;;;4944885;29;20046;-86
2022/11/04 12:36:59;;;;;;;3.78;1.77;;;;;;;;;;4950355;29;20062;-86
2022/11/04 12:39:34;;;;;;;6.10;1.90;;;;;;;;;;4951014;28;20047;-86
2022/11/04 12:42:20;;;;;;;5.47;1.92;;;;;;;;;;4951054;29;20057;-86
2022/11/04 12:44:52;;;;;;;5.68;1.88;;;;;;;;;;4949968;28;20178;-86
2022/11/04 12:47:33;;;;;;;3.97;1.90;;;;;;;;;;4947960;28;20039;-86
2022/11/04 12:50:06;;;;;;;7.53;2.05;;;;;;;;;;4951551;29;20790;-86
2022/11/04 12:52:41;;;;;;;5.40;1.85;;;;;;;;;;4946845;28;20047;-86
2022/11/04 12:55:19;;;;;;;4.57;2.00;;;;;;;;;;4981659;28;20057;-86
2022/11/04 12:57:54;;;;;;;6.18;1.90;;;;;;;;;;4948470;28;20031;-86
2022/11/04 13:00:23;;;;;;;3.92;1.90;;;;;;;;;;4948942;29;20550;-86
2022/11/04 13:03:08;;;;;;;3.75;1.77;;;;;;;;;;4947595;29;20055;-86
2022/11/04 13:06:03;;;;;;;5.40;1.90;;;;;;;;;;4940504;29;20440;-85
2022/11/04 13:08:29;;;;;;;3.63;1.65;;;;;;;;;;4937326;28;20055;-86
2022/11/04 13:10:58;;;;;;;2.13;1.50;;;;;;;;;;4981990;28;20049;-86
2022/11/04 13:13:32;;;;;;;4.07;1.67;;;;;;;;;;4949218;29;20046;-86
2022/11/04 13:15:59;;;;;;;4.60;2.05;;;;;;;;;;4950962;29;20553;-87
2022/11/04 13:18:27;;;;;;;5.43;1.70;;;;;;;;;;4950822;29;20057;-87
2022/11/04 13:20:59;;;;;;;7.03;2.00;;;;;;;;;;4950147;28;20055;-86
2022/11/04 13:23:34;;;;;;;5.22;2.00;;;;;;;;;;4948950;28;20515;-87
2022/11/04 13:26:00;;;;;;;5.32;1.90;;;;;;;;;;4944832;28;20051;-86
2022/11/04 13:28:26;;;;;;;4.57;1.90;;;;;;;;;;4949679;29;20039;-86
2022/11/04 13:30:56;;;;;;;8.95;2.10;;;;;;;;;;4949949;29;20419;-86
2022/11/04 13:33:25;;;;;;;4.60;2.05;;;;;;;;;;4947204;29;20090;-86
2022/11/04 13:35:57;;;;;;;2.30;1.60;;;;;;;;;;4950259;29;20585;-86
2022/11/04 13:38:53;;;;;;;5.05;1.67;;;;;;;;;;4947938;28;20406;-86
2022/11/04 13:41:45;;;;;;;4.63;1.90;;;;;;;;;;4945479;29;20478;-87
2022/11/04 13:44:16;;;;;;;5.82;1.90;;;;;;;;;;4976212;28;20063;-87
2022/11/04 13:46:47;;;;;;;6.00;2.00;;;;;;;;;;4955306;28;20089;-87
2022/11/04 13:49:13;;;;;;;4.63;1.83;;;;;;;;;;4952487;29;20090;-86
2022/11/04 13:51:42;;;;;;;4.28;1.80;;;;;;;;;;4955172;28;20430;-86
2022/11/04 13:54:14;;;;;;;8.88;2.95;;;;;;;;;;4952404;29;20043;-86
2022/11/04 13:56:40;;;;;;;7.25;2.47;;;;;;;;;;4949461;28;20138;-86
2022/11/04 13:59:12;;;;;;;5.93;2.30;;;;;;;;;;4951774;28;20403;-86
2022/11/04 14:01:38;;;;;;;7.65;1.90;;;;;;;;;;4986374;28;20091;-86
2022/11/04 14:04:14;;;;;;;4.45;2.05;;;;;;;;;;4947432;28;20054;-86
2022/11/04 14:06:51;;;;;;;5.95;2.00;;;;;;;;;;4953897;29;20063;-87
2022/11/04 14:09:29;;;;;;;2.97;1.95;;;;;;;;;;4947327;28;20044;-86
2022/11/04 14:12:16;;;;;;;5.82;1.85;;;;;;;;;;4952086;29;20051;-87
2022/11/04 14:14:43;;;;;;;4.05;1.80;;;;;;;;;;4952041;29;20440;-86
2022/11/04 14:17:28;;;;;;;3.65;1.75;;;;;;;;;;4953029;28;20043;-87
2022/11/04 14:19:59;;;;;;;5.80;2.20;;;;;;;;;;4954651;28;20039;-87
2022/11/04 14:22:43;;;;;;;5.82;2.13;;;;;;;;;;4951446;28;20114;-87
2022/11/04 14:25:19;;;;;;;5.22;2.20;;;;;;;;;;4951316;29;20043;-87
2022/11/04 14:27:46;;;;;;;3.13;1.92;;;;;;;;;;4985516;28;20051;-87
2022/11/04 14:30:30;;;;;;;5.45;2.08;;;;;;;;;;4952469;29;20055;-88
2022/11/04 14:32:59;;;;;;;6.53;2.15;;;;;;;;;;4951471;28;20126;-87
2022/11/04 14:35:25;;;;;;;5.43;1.88;;;;;;;;;;4952108;29;20373;-87
2022/11/04 14:37:52;;;;;;;5.35;2.05;;;;;;;;;;4954192;29;20514;-87
2022/11/04 14:40:24;;;;;;;8.85;2.10;;;;;;;;;;4953788;28;20407;-87
2022/11/04 14:42:52;;;;;;;5.35;1.73;;;;;;;;;;4945460;28;20074;-87
2022/11/04 14:45:23;;;;;;;4.25;1.73;;;;;;;;;;4949173;29;20051;-86
2022/11/04 14:47:52;;;;;;;4.93;1.92;;;;;;;;;;4950794;29;20053;-87
2022/11/04 14:50:19;;;;;;;7.97;2.00;;;;;;;;;;4951343;28;20055;-87
2022/11/04 14:53:00;;;;;;;3.50;1.80;;;;;;;;;;4953757;29;20152;-87
2022/11/04 14:55:31;;;;;;;9.13;2.13;;;;;;;;;;4949622;28;20091;-87
2022/11/04 14:57:59;;;;;;;7.50;2.00;;;;;;;;;;4951774;29;20047;-87
2022/11/04 15:00:36;;;;;;;7.65;1.88;;;;;;;;;;4950684;28;20587;-87
2022/11/04 15:03:20;;;;;;;7.97;2.30;;;;;;;;;;4953971;28;20057;-87
2022/11/04 15:05:49;;;;;;;7.13;2.15;;;;;;;;;;4947234;29;20047;-86
2022/11/04 15:08:27;;;;;;;6.28;1.90;;;;;;;;;;4953199;28;20110;-87
2022/11/04 15:11:08;;;;;;;6.97;2.10;;;;;;;;;;4954308;29;20126;-87
2022/11/04 15:13:35;;;;;;;4.68;1.90;;;;;;;;;;4949247;29;20047;-86
2022/11/04 15:16:05;;;;;;;7.80;2.00;;;;;;;;;;4949480;28;20058;-87
2022/11/04 15:18:32;;;;;;;5.15;1.83;;;;;;;;;;4983423;28;20051;-87
2022/11/04 15:20:59;;;;;;;4.47;2.03;;;;;;;;;;4952783;28;20474;-87
2022/11/04 15:23:27;;;;;;;6.05;2.20;;;;;;;;;;4951680;29;20099;-87
2022/11/04 15:25:53;;;;;;;7.20;2.33;;;;;;;;;;4950043;28;20870;-87
2022/11/04 15:28:24;;;;;;;6.40;2.30;;;;;;;;;;4952149;29;20050;-87
2022/11/04 15:31:19;;;;;;;4.28;2.00;;;;;;;;;;4951973;28;20054;-87
2022/11/04 15:33:47;;;;;;;7.03;2.30;;;;;;;;;;4953903;29;20086;-86